Time;durP1;ratioP1;P1;durP2;ratioP2;P2;SDS_P1;SDS_P2;PMS_P1;PMS_P2;Temp;Humidity;BMP_temperature;BMP_pressure;BME280_temperature;BME280_humidity;BME280_pressure;Samples;Min_cycle;Max_cycle;Signal;HPM_P1;HPM_P2
2021/11/05 00:01:47;;;;;;;13.88;9.73;;;11.80;97.90;;;;;;5032465;28;20040;-59
2021/11/05 00:04:13;;;;;;;13.00;9.95;;;11.80;99.90;;;;;;5023446;28;20048;-60
2021/11/05 00:06:39;;;;;;;11.98;9.63;;;11.70;99.90;;;;;;5047829;28;20427;-59
2021/11/05 00:09:04;;;;;;;8.98;8.05;;;11.70;99.90;;;;;;5033157;28;20032;-59
2021/11/05 00:11:30;;;;;;;10.98;9.20;;;11.60;99.70;;;;;;5030460;28;20033;-59
2021/11/05 00:13:55;;;;;;;11.40;9.00;;;11.50;99.60;;;;;;5032526;28;20376;-59
2021/11/05 00:16:21;;;;;;;10.50;8.30;;;11.60;99.60;;;;;;5032427;28;20029;-60
2021/11/05 00:18:47;;;;;;;8.88;7.35;;;11.60;99.70;;;;;;5030778;28;20475;-59
2021/11/05 00:21:12;;;;;;;14.40;8.15;;;11.60;99.50;;;;;;5029329;28;20475;-58
2021/11/05 00:23:38;;;;;;;12.68;8.38;;;11.60;99.30;;;;;;5050005;28;20044;-59
2021/11/05 00:26:04;;;;;;;13.10;9.25;;;11.60;99.20;;;;;;5053180;28;20113;-59
2021/11/05 00:28:29;;;;;;;12.85;9.40;;;11.50;99.40;;;;;;5032549;28;20021;-60
2021/11/05 00:30:56;;;;;;;11.63;9.68;;;11.50;99.60;;;;;;5032000;28;20033;-58
2021/11/05 00:33:22;;;;;;;13.10;8.88;;;11.60;99.70;;;;;;5020716;28;20018;-60
2021/11/05 00:35:48;;;;;;;12.40;8.70;;;11.50;99.50;;;;;;5032549;28;20101;-60
2021/11/05 00:38:14;;;;;;;12.23;9.50;;;11.40;99.50;;;;;;5045888;28;20116;-59
2021/11/05 00:40:40;;;;;;;10.82;9.02;;;11.40;99.40;;;;;;5045969;28;20053;-60
2021/11/05 00:43:05;;;;;;;9.75;8.75;;;11.30;99.30;;;;;;5044996;28;20028;-58
2021/11/05 00:45:31;;;;;;;10.93;8.65;;;11.40;98.60;;;;;;5031845;28;20095;-59
2021/11/05 00:47:57;;;;;;;9.55;7.82;;;11.50;99.20;;;;;;5032229;28;20029;-59
2021/11/05 00:50:22;;;;;;;14.05;8.82;;;11.40;98.70;;;;;;5032079;28;20031;-59
2021/11/05 00:52:48;;;;;;;10.18;8.05;;;11.30;99.10;;;;;;5031123;28;20025;-59
2021/11/05 00:55:17;;;;;;;9.93;7.78;;;11.40;98.70;;;;;;5033150;28;20040;-59
2021/11/05 00:57:42;;;;;;;9.10;7.57;;;11.30;94.60;;;;;;5035259;28;20072;-59
2021/11/05 01:00:14;;;;;;;8.13;6.70;;;11.30;98.30;;;;;;5034716;28;20045;-59
2021/11/05 01:02:41;;;;;;;10.43;7.03;;;11.40;94.30;;;;;;5042463;28;20030;-58
2021/11/05 01:05:07;;;;;;;8.98;6.65;;;11.20;97.60;;;;;;5032170;28;20022;-59
2021/11/05 01:07:32;;;;;;;9.25;6.78;;;11.20;98.50;;;;;;5028455;28;20052;-59
2021/11/05 01:09:58;;;;;;;7.88;6.30;;;11.20;98.20;;;;;;5034943;28;20471;-58
2021/11/05 01:12:24;;;;;;;9.07;6.55;;;11.20;97.80;;;;;;5041798;28;20477;-59
2021/11/05 01:14:50;;;;;;;9.10;6.55;;;11.10;98.30;;;;;;5048480;28;20029;-59
2021/11/05 01:17:16;;;;;;;7.65;6.22;;;11.20;98.00;;;;;;5034834;28;20021;-59
2021/11/05 01:19:43;;;;;;;11.18;6.35;;;11.10;97.70;;;;;;5025096;28;20037;-59
2021/11/05 01:22:10;;;;;;;7.22;6.18;;;11.10;98.00;;;;;;5036134;28;20100;-60
2021/11/05 01:25:03;;;;;;;9.73;5.95;;;11.10;97.80;;;;;;5056293;28;20029;-60
2021/11/05 01:27:29;;;;;;;9.75;6.05;;;11.20;95.40;;;;;;5035136;28;20466;-59
2021/11/05 01:29:57;;;;;;;9.00;6.28;;;11.00;97.50;;;;;;5036084;28;20127;-59
2021/11/05 01:32:23;;;;;;;8.90;6.15;;;11.10;97.90;;;;;;5039623;28;20504;-59
2021/11/05 01:34:49;;;;;;;8.75;6.55;;;11.00;97.90;;;;;;5052820;28;20039;-59
2021/11/05 01:37:15;;;;;;;7.85;6.10;;;11.00;97.40;;;;;;5042327;28;20104;-59
2021/11/05 01:39:41;;;;;;;9.48;6.22;;;10.90;97.70;;;;;;5043877;28;20513;-59
2021/11/05 01:42:07;;;;;;;7.03;5.78;;;10.80;97.50;;;;;;5035924;28;20078;-60
2021/11/05 01:44:33;;;;;;;7.55;6.18;;;10.90;97.80;;;;;;5055927;28;20048;-60
2021/11/05 01:47:00;;;;;;;11.23;6.40;;;10.90;97.60;;;;;;5034891;28;20040;-59
2021/11/05 01:49:31;;;;;;;8.80;5.88;;;10.80;97.10;;;;;;5043314;28;20470;-59
2021/11/05 01:51:57;;;;;;;7.43;4.95;;;10.80;97.10;;;;;;5034288;28;20061;-60
2021/11/05 01:54:32;;;;;;;7.35;5.43;;;10.80;97.10;;;;;;5034798;28;20494;-59
2021/11/05 01:56:58;;;;;;;8.05;5.35;;;10.80;96.30;;;;;;5035192;28;20038;-59
2021/11/05 01:59:30;;;;;;;6.50;4.90;;;10.70;96.00;;;;;;5048109;28;20048;-60
2021/11/05 02:01:58;;;;;;;6.55;5.20;;;10.80;96.60;;;;;;5027195;28;20545;-59
2021/11/05 02:04:24;;;;;;;5.07;4.57;;;10.60;97.10;;;;;;5055307;28;20065;-59
2021/11/05 02:06:51;;;;;;;5.63;4.65;;;10.70;97.30;;;;;;5053508;28;20411;-59
2021/11/05 02:09:19;;;;;;;5.68;4.65;;;10.60;96.70;;;;;;5053129;28;20041;-59
2021/11/05 02:11:47;;;;;;;8.20;4.78;;;10.70;96.70;;;;;;5032843;28;20518;-60
2021/11/05 02:14:29;;;;;;;7.95;5.15;;;10.50;97.00;;;;;;5033861;28;20487;-58
2021/11/05 02:17:00;;;;;;;8.73;5.30;;;10.60;96.30;;;;;;5031319;28;20029;-58
2021/11/05 02:19:28;;;;;;;7.05;5.07;;;10.50;97.00;;;;;;5016387;28;20038;-57
2021/11/05 02:21:56;;;;;;;5.80;4.55;;;10.40;96.90;;;;;;5040179;28;20029;-59
2021/11/05 02:24:23;;;;;;;5.18;4.60;;;10.50;97.20;;;;;;5055277;28;20036;-59
2021/11/05 02:26:50;;;;;;;6.30;4.85;;;10.50;93.80;;;;;;5044938;28;20053;-59
2021/11/05 02:29:17;;;;;;;6.30;4.85;;;10.40;97.60;;;;;;5053901;28;20025;-59
2021/11/05 02:31:43;;;;;;;5.55;4.25;;;10.40;97.70;;;;;;5034299;28;20025;-59
2021/11/05 02:34:09;;;;;;;5.32;4.43;;;10.50;97.50;;;;;;5034695;28;20021;-59
2021/11/05 02:36:35;;;;;;;4.55;4.10;;;10.30;97.50;;;;;;5037341;28;20033;-59
2021/11/05 02:39:07;;;;;;;5.53;3.97;;;10.20;98.00;;;;;;5054520;28;20127;-57
2021/11/05 02:41:33;;;;;;;6.25;3.88;;;;;;;;;;5032834;28;20025;-59
2021/11/05 02:43:59;;;;;;;7.20;4.43;;;;;;;;;;5050896;28;20022;-59
2021/11/05 02:46:25;;;;;;;4.43;3.90;;;;;;;;;;5033970;28;20021;-58
2021/11/05 02:48:51;;;;;;;5.03;3.95;;;;;;;;;;5034502;28;20029;-58
2021/11/05 02:51:17;;;;;;;4.97;4.30;;;;;;;;;;5033444;28;20030;-58
2021/11/05 02:53:43;;;;;;;4.40;3.58;;;;;;;;;;5034471;28;20107;-59
2021/11/05 02:56:09;;;;;;;8.55;4.00;;;10.20;99.90;;;;;;5033021;28;20494;-59
2021/11/05 02:58:34;;;;;;;4.20;3.78;;;10.40;99.90;;;;;;5054544;28;20033;-60
2021/11/05 03:01:00;;;;;;;5.15;3.90;;;10.40;99.90;;;;;;5041779;28;20041;-58
2021/11/05 03:03:27;;;;;;;5.40;3.85;;;10.30;99.90;;;;;;5033447;28;20504;-59
2021/11/05 03:05:52;;;;;;;4.30;3.88;;;10.30;98.90;;;;;;5034747;28;20063;-58
2021/11/05 03:08:18;;;;;;;5.43;3.45;;;10.20;99.10;;;;;;5037881;28;20036;-59
2021/11/05 03:10:44;;;;;;;6.22;3.65;;;10.20;98.10;;;;;;5038664;28;20073;-59
2021/11/05 03:13:10;;;;;;;3.25;2.95;;;10.10;99.90;;;;;;5050176;28;20063;-59
2021/11/05 03:15:41;;;;;;;5.05;2.92;;;10.10;99.90;;;;;;5045191;28;20030;-60
2021/11/05 03:18:07;;;;;;;4.85;2.95;;;10.10;99.90;;;;;;5048990;28;20482;-59
2021/11/05 03:20:33;;;;;;;3.78;2.78;;;10.10;99.90;;;;;;5049011;28;20136;-59
2021/11/05 03:22:59;;;;;;;3.03;2.67;;;10.10;99.90;;;;;;5031910;28;20078;-59
2021/11/05 03:25:27;;;;;;;4.35;2.70;;;10.10;99.90;;;;;;5033357;28;20072;-59
2021/11/05 03:27:52;;;;;;;4.05;2.30;;;10.10;99.90;;;;;;5035019;28;20026;-58
2021/11/05 03:30:21;;;;;;;4.22;3.38;;;10.10;99.90;;;;;;5033625;28;20506;-57
2021/11/05 03:32:46;;;;;;;3.92;2.88;;;10.10;99.90;;;;;;5044888;28;20021;-58
2021/11/05 03:35:14;;;;;;;3.28;2.80;;;10.10;99.90;;;;;;5044048;28;20348;-58
2021/11/05 03:37:42;;;;;;;3.17;2.25;;;10.10;99.90;;;;;;5032924;28;20030;-58
2021/11/05 03:40:10;;;;;;;3.53;2.13;;;10.10;99.90;;;;;;5033288;28;20120;-58
2021/11/05 03:42:36;;;;;;;3.00;2.42;;;10.10;99.90;;;;;;5030391;28;20399;-58
2021/11/05 03:45:03;;;;;;;3.80;2.80;;;10.00;99.90;;;;;;5033518;28;20029;-57
2021/11/05 03:47:29;;;;;;;3.13;2.53;;;10.00;99.90;;;;;;5031040;28;20127;-58
2021/11/05 03:49:55;;;;;;;2.83;2.47;;;10.00;99.90;;;;;;5033077;28;20060;-58
2021/11/05 03:52:20;;;;;;;2.35;2.15;;;9.90;99.90;;;;;;5038368;28;20057;-58
2021/11/05 03:54:46;;;;;;;3.45;2.33;;;9.90;99.90;;;;;;5032782;28;20035;-57
2021/11/05 03:57:13;;;;;;;2.47;2.28;;;;;;;;;;5031340;28;20032;-57
2021/11/05 03:59:39;;;;;;;3.10;2.15;;;;;;;;;;5032147;28;20091;-58
2021/11/05 04:02:05;;;;;;;4.13;2.10;;;9.80;99.90;;;;;;5022722;28;20026;-56
2021/11/05 04:04:31;;;;;;;3.95;1.90;;;9.80;99.90;;;;;;5012413;28;20599;-59
2021/11/05 04:06:57;;;;;;;2.63;1.98;;;9.80;99.70;;;;;;5030065;28;20049;-59
2021/11/05 04:09:22;;;;;;;4.25;3.05;;;9.90;94.80;;;;;;5032861;28;20032;-59
2021/11/05 04:11:48;;;;;;;8.82;3.90;;;9.80;95.40;;;;;;5031196;28;20500;-58
2021/11/05 04:14:15;;;;;;;8.23;4.88;;;9.90;92.80;;;;;;5031871;28;20037;-59
2021/11/05 04:16:40;;;;;;;14.95;7.53;;;9.80;96.80;;;;;;5015354;28;20033;-58
2021/11/05 04:19:06;;;;;;;18.00;9.82;;;9.80;95.40;;;;;;5032400;28;20029;-58
2021/11/05 04:21:32;;;;;;;16.77;9.10;;;9.80;96.60;;;;;;5032616;28;20098;-60
2021/11/05 04:24:01;;;;;;;15.68;8.15;;;9.90;97.00;;;;;;5033321;28;20494;-59
2021/11/05 04:26:26;;;;;;;16.08;8.27;;;9.90;96.60;;;;;;5030604;28;20037;-57
2021/11/05 04:28:52;;;;;;;10.43;5.85;;;10.00;95.60;;;;;;5048742;28;20061;-59
2021/11/05 04:31:18;;;;;;;8.80;5.97;;;9.90;96.00;;;;;;5031920;28;20136;-57
2021/11/05 04:33:44;;;;;;;7.57;5.28;;;9.80;95.40;;;;;;5035464;28;20193;-58
2021/11/05 04:36:11;;;;;;;6.35;4.43;;;9.70;93.20;;;;;;5030946;28;20033;-59
2021/11/05 04:38:37;;;;;;;7.13;4.90;;;9.70;94.80;;;;;;5032103;28;20395;-57
2021/11/05 04:41:04;;;;;;;6.68;4.20;;;9.70;94.30;;;;;;5032715;28;20136;-58
2021/11/05 04:43:31;;;;;;;7.15;4.90;;;9.80;97.00;;;;;;5036242;28;20538;-57
2021/11/05 04:45:57;;;;;;;5.45;4.45;;;9.80;98.20;;;;;;5031940;28;20190;-57
2021/11/05 04:48:23;;;;;;;5.38;4.43;;;9.80;99.50;;;;;;5030944;28;20033;-58
2021/11/05 04:50:49;;;;;;;5.95;4.55;;;9.80;94.90;;;;;;5032869;28;20451;-59
2021/11/05 04:53:15;;;;;;;5.78;4.65;;;9.70;94.00;;;;;;5033184;28;20025;-58
2021/11/05 04:55:41;;;;;;;5.82;4.38;;;9.70;93.70;;;;;;5019429;28;20038;-59
2021/11/05 04:58:47;;;;;;;6.30;4.93;;;9.70;94.00;;;;;;5036401;28;20091;-58
2021/11/05 05:01:13;;;;;;;8.02;5.43;;;9.70;92.00;;;;;;5051850;28;20487;-56
2021/11/05 05:03:38;;;;;;;7.07;4.22;;;9.70;94.20;;;;;;5033531;28;20026;-59
2021/11/05 05:06:04;;;;;;;5.38;4.00;;;9.60;93.10;;;;;;5031850;28;20025;-58
2021/11/05 05:08:30;;;;;;;4.55;3.88;;;9.70;96.50;;;;;;5044411;28;20116;-57
2021/11/05 05:10:56;;;;;;;7.75;4.40;;;9.70;99.90;;;;;;5052364;28;20028;-57
2021/11/05 05:13:21;;;;;;;6.72;4.22;;;9.70;98.00;;;;;;5036569;28;20108;-58
2021/11/05 05:15:49;;;;;;;7.10;4.25;;;9.70;96.80;;;;;;5031347;28;20356;-58
2021/11/05 05:18:15;;;;;;;5.07;4.43;;;9.60;97.80;;;;;;5056998;28;20032;-58
2021/11/05 05:20:44;;;;;;;4.70;3.88;;;9.60;98.20;;;;;;5039969;28;20085;-58
2021/11/05 05:23:10;;;;;;;5.68;4.10;;;9.60;98.10;;;;;;5031253;28;20494;-55
2021/11/05 05:25:39;;;;;;;6.38;4.40;;;9.60;98.40;;;;;;5031665;28;20040;-57
2021/11/05 05:28:05;;;;;;;6.65;4.65;;;9.60;97.90;;;;;;5031333;28;20119;-57
2021/11/05 05:30:32;;;;;;;6.00;4.38;;;9.60;99.10;;;;;;5031752;28;20105;-59
2021/11/05 05:32:58;;;;;;;5.35;4.03;;;9.70;99.90;;;;;;5038379;28;20468;-59
2021/11/05 05:35:24;;;;;;;6.15;4.03;;;9.60;99.80;;;;;;5047288;28;20521;-58
2021/11/05 05:37:52;;;;;;;4.07;3.47;;;9.60;96.60;;;;;;5035609;28;20017;-59
2021/11/05 05:40:18;;;;;;;4.50;3.20;;;9.60;97.00;;;;;;5050572;28;20375;-59
2021/11/05 05:42:44;;;;;;;4.25;3.85;;;9.60;96.10;;;;;;5042410;28;20033;-59
2021/11/05 05:45:10;;;;;;;4.80;3.88;;;9.60;97.80;;;;;;5035685;28;20030;-59
2021/11/05 05:47:38;;;;;;;5.25;2.90;;;9.60;99.90;;;;;;5038356;28;20525;-57
2021/11/05 05:50:06;;;;;;;3.55;2.55;;;9.60;96.50;;;;;;5055600;28;20565;-58
2021/11/05 05:52:31;;;;;;;4.07;2.15;;;9.60;96.60;;;;;;5034162;28;20036;-59
2021/11/05 05:54:57;;;;;;;2.53;2.33;;;9.60;96.60;;;;;;5034985;28;20030;-59
2021/11/05 05:57:24;;;;;;;5.28;2.80;;;9.60;96.80;;;;;;5037127;28;20040;-59
2021/11/05 05:59:50;;;;;;;3.70;2.65;;;9.60;96.60;;;;;;5055692;28;20401;-58
2021/11/05 06:02:15;;;;;;;3.38;2.38;;;9.60;97.60;;;;;;5043315;28;20044;-58
2021/11/05 06:04:41;;;;;;;6.53;2.92;;;9.50;96.90;;;;;;5033902;28;20034;-58
2021/11/05 06:07:07;;;;;;;2.90;2.42;;;9.60;96.80;;;;;;5035155;28;20115;-58
2021/11/05 06:09:33;;;;;;;3.83;2.33;;;9.50;96.60;;;;;;5052415;28;20340;-58
2021/11/05 06:11:59;;;;;;;3.53;2.50;;;9.50;97.90;;;;;;5034012;28;20108;-58
2021/11/05 06:14:25;;;;;;;4.18;2.63;;;9.60;98.20;;;;;;5046545;28;20212;-58
2021/11/05 06:16:50;;;;;;;4.22;2.63;;;9.50;98.90;;;;;;5033583;28;20561;-58
2021/11/05 06:19:16;;;;;;;4.28;2.42;;;9.50;97.10;;;;;;5019575;28;20185;-58
2021/11/05 06:21:42;;;;;;;4.10;2.50;;;9.50;97.90;;;;;;5031530;28;20044;-59
2021/11/05 06:24:08;;;;;;;3.75;2.05;;;9.50;99.90;;;;;;5028490;28;20387;-56
2021/11/05 06:26:34;;;;;;;3.40;2.38;;;9.50;97.80;;;;;;5024182;28;20205;-58
2021/11/05 06:29:02;;;;;;;3.45;2.38;;;9.50;97.60;;;;;;5026962;28;20030;-56
2021/11/05 06:31:34;;;;;;;3.42;2.60;;;9.50;98.40;;;;;;5044435;28;20088;-58
2021/11/05 06:34:04;;;;;;;3.70;2.33;;;9.50;97.80;;;;;;5036973;28;20029;-59
2021/11/05 06:36:30;;;;;;;3.97;3.08;;;9.50;97.30;;;;;;5032651;28;20101;-59
2021/11/05 06:38:56;;;;;;;4.10;3.03;;;9.50;99.90;;;;;;5033536;28;20033;-59
2021/11/05 06:41:23;;;;;;;4.07;2.88;;;;;;;;;;5052108;28;20488;-59
2021/11/05 06:43:49;;;;;;;5.15;2.33;;;;;;;;;;5034277;28;20018;-59
2021/11/05 06:46:15;;;;;;;4.63;2.85;;;9.10;99.90;;;;;;5029947;28;20033;-59
2021/11/05 06:48:41;;;;;;;4.75;2.85;;;9.50;99.90;;;;;;5014987;28;20084;-56
2021/11/05 06:51:07;;;;;;;4.82;3.53;;;9.50;99.00;;;;;;5021714;28;20033;-58
2021/11/05 06:53:32;;;;;;;5.45;3.28;;;9.50;98.90;;;;;;5033092;28;20364;-58
2021/11/05 06:55:58;;;;;;;5.28;3.20;;;9.50;99.30;;;;;;5038207;28;20036;-56
2021/11/05 06:58:24;;;;;;;3.28;2.95;;;9.50;99.50;;;;;;5048357;28;20030;-59
2021/11/05 07:00:50;;;;;;;4.22;2.85;;;9.60;99.10;;;;;;5030769;28;20045;-59
2021/11/05 07:03:17;;;;;;;6.78;3.85;;;9.60;98.20;;;;;;5029860;28;20022;-59
2021/11/05 07:05:43;;;;;;;3.22;2.92;;;9.50;99.90;;;;;;5030372;28;20025;-58
2021/11/05 07:08:09;;;;;;;5.60;2.92;;;9.50;99.90;;;;;;5031205;28;20026;-59
2021/11/05 07:10:35;;;;;;;4.13;2.58;;;9.50;99.90;;;;;;5026749;28;20435;-58
2021/11/05 07:13:00;;;;;;;3.22;2.65;;;9.50;99.90;;;;;;5046064;28;20025;-58
2021/11/05 07:15:26;;;;;;;4.88;2.92;;;9.60;99.90;;;;;;5034829;28;20548;-59
2021/11/05 07:17:52;;;;;;;5.43;3.10;;;9.50;99.90;;;;;;5053956;28;20033;-60
2021/11/05 07:20:19;;;;;;;7.57;2.88;;;9.40;99.90;;;;;;5033543;28;20394;-60
2021/11/05 07:22:46;;;;;;;4.90;3.33;;;9.50;99.90;;;;;;5031325;28;20110;-59
2021/11/05 07:25:13;;;;;;;4.57;3.10;;;9.50;99.90;;;;;;5029253;28;20448;-59
2021/11/05 07:27:40;;;;;;;6.45;3.72;;;9.60;99.90;;;;;;5031755;28;20143;-59
2021/11/05 07:30:09;;;;;;;8.43;4.83;;;9.60;99.90;;;;;;5030367;28;20403;-56
2021/11/05 07:32:38;;;;;;;6.07;4.82;;;9.60;99.90;;;;;;5031051;28;20034;-60
2021/11/05 07:35:05;;;;;;;11.45;5.97;;;9.60;99.90;;;;;;5030933;28;20047;-60
2021/11/05 07:37:32;;;;;;;9.00;5.30;;;9.70;99.90;;;;;;5031745;28;20033;-60
2021/11/05 07:39:58;;;;;;;10.98;6.10;;;9.60;99.90;;;;;;5021631;28;20061;-59
2021/11/05 07:42:24;;;;;;;8.68;6.40;;;9.60;99.90;;;;;;5024683;28;20037;-60
2021/11/05 07:44:50;;;;;;;10.27;7.20;;;9.70;99.90;;;;;;5027807;28;20426;-60
2021/11/05 07:47:21;;;;;;;9.45;7.18;;;9.70;99.90;;;;;;5029401;28;20029;-59
2021/11/05 07:49:47;;;;;;;12.65;7.15;;;9.60;99.90;;;;;;5032656;28;20029;-60
2021/11/05 07:52:13;;;;;;;6.25;5.65;;;9.70;99.90;;;;;;5039287;28;20080;-60
2021/11/05 07:54:38;;;;;;;9.88;6.97;;;9.60;99.90;;;;;;5032532;28;20028;-59
2021/11/05 07:57:04;;;;;;;7.15;6.00;;;9.80;99.90;;;;;;5030063;28;20026;-60
2021/11/05 07:59:29;;;;;;;6.47;5.82;;;9.80;99.90;;;;;;5040185;28;20038;-60
2021/11/05 08:01:55;;;;;;;8.60;6.18;;;9.80;99.90;;;;;;5036794;28;20029;-60
2021/11/05 08:04:21;;;;;;;8.20;5.50;;;9.80;98.90;;;;;;5031258;28;20394;-60
2021/11/05 08:06:46;;;;;;;10.43;5.80;;;9.70;99.90;;;;;;5025156;28;20039;-60
2021/11/05 08:09:12;;;;;;;6.93;5.50;;;9.80;99.90;;;;;;5033426;28;20036;-60
2021/11/05 08:11:37;;;;;;;10.95;5.90;;;9.80;98.90;;;;;;5030951;28;20372;-60
2021/11/05 08:14:03;;;;;;;6.60;4.97;;;9.80;99.50;;;;;;5026473;28;20584;-60
2021/11/05 08:16:29;;;;;;;12.73;5.63;;;9.90;98.20;;;;;;5029694;28;20439;-58
2021/11/05 08:18:55;;;;;;;8.53;6.77;;;9.90;99.90;;;;;;5026369;28;20025;-58
2021/11/05 08:21:21;;;;;;;8.23;6.35;;;10.00;99.90;;;;;;5028782;28;20049;-58
2021/11/05 08:23:47;;;;;;;10.30;6.05;;;10.00;99.90;;;;;;5025140;28;20026;-60
2021/11/05 08:26:13;;;;;;;7.80;5.47;;;10.10;99.90;;;;;;5026415;28;20037;-59
2021/11/05 08:28:41;;;;;;;8.18;5.95;;;10.10;99.90;;;;;;5029743;28;20032;-59
2021/11/05 08:31:11;;;;;;;6.93;5.45;;;10.10;99.90;;;;;;5029146;28;20468;-59
2021/11/05 08:33:39;;;;;;;8.93;5.72;;;10.10;99.90;;;;;;5036725;28;20026;-60
2021/11/05 08:36:06;;;;;;;10.50;7.05;;;10.20;97.20;;;;;;5031606;28;20138;-60
2021/11/05 08:38:33;;;;;;;14.40;7.60;;;10.20;99.90;;;;;;5025431;28;20079;-59
2021/11/05 08:40:59;;;;;;;12.38;6.75;;;10.30;99.90;;;;;;5029421;28;20072;-59
2021/11/05 08:43:31;;;;;;;10.65;6.75;;;10.20;97.70;;;;;;5030123;28;20130;-57
2021/11/05 08:46:05;;;;;;;8.40;6.60;;;10.30;98.10;;;;;;5033644;28;20033;-58
2021/11/05 08:48:32;;;;;;;11.80;6.68;;;10.30;99.30;;;;;;5024647;28;20034;-58
2021/11/05 08:51:02;;;;;;;11.05;7.70;;;10.40;99.60;;;;;;5034395;28;20108;-59
2021/11/05 08:53:27;;;;;;;11.95;6.90;;;10.50;99.90;;;;;;5023869;28;20038;-58
2021/11/05 08:55:53;;;;;;;8.80;6.63;;;10.50;99.00;;;;;;5017227;28;20034;-58
2021/11/05 08:58:19;;;;;;;8.23;7.15;;;10.50;99.90;;;;;;5030881;28;20032;-59
2021/11/05 09:00:45;;;;;;;8.80;7.18;;;10.50;99.10;;;;;;5029956;28;20045;-59
2021/11/05 09:03:10;;;;;;;9.68;6.90;;;10.50;97.70;;;;;;5028354;28;20398;-59
2021/11/05 09:05:37;;;;;;;10.27;6.93;;;10.50;98.60;;;;;;5026336;28;20116;-58
2021/11/05 09:08:04;;;;;;;17.15;9.00;;;10.60;98.80;;;;;;5043980;28;20025;-58
2021/11/05 09:10:30;;;;;;;10.25;6.72;;;10.60;99.20;;;;;;5030282;28;20108;-58
2021/11/05 09:12:56;;;;;;;11.98;7.85;;;10.70;97.30;;;;;;5039446;28;20054;-58
2021/11/05 09:15:24;;;;;;;13.88;6.95;;;10.70;99.10;;;;;;5031305;28;20013;-58
2021/11/05 09:17:52;;;;;;;11.88;7.65;;;10.70;95.90;;;;;;5030914;28;20029;-57
2021/11/05 09:20:18;;;;;;;12.57;8.10;;;10.80;98.60;;;;;;5024187;28;20050;-58
2021/11/05 09:22:45;;;;;;;10.38;8.20;;;10.80;95.50;;;;;;5031216;28;20511;-60
2021/11/05 09:25:11;;;;;;;13.50;9.27;;;10.80;98.90;;;;;;5033012;28;20037;-59
2021/11/05 09:27:37;;;;;;;11.98;8.52;;;10.90;98.90;;;;;;5033684;28;20109;-59
2021/11/05 09:30:05;;;;;;;9.60;8.45;;;10.90;99.00;;;;;;5035091;28;20406;-59
2021/11/05 09:32:31;;;;;;;8.93;7.97;;;10.90;98.80;;;;;;5033818;28;20030;-59
2021/11/05 09:34:56;;;;;;;12.82;8.60;;;10.80;95.10;;;;;;5033671;28;20056;-60
2021/11/05 09:37:22;;;;;;;9.10;7.93;;;10.80;98.60;;;;;;5033409;28;20021;-58
2021/11/05 09:39:49;;;;;;;9.50;7.82;;;10.90;98.60;;;;;;5034796;28;20057;-60
2021/11/05 09:42:15;;;;;;;11.75;8.10;;;11.10;98.20;;;;;;5032047;28;20382;-60
2021/11/05 09:44:41;;;;;;;8.48;7.20;;;11.00;98.40;;;;;;5035202;28;20052;-58
2021/11/05 09:47:06;;;;;;;10.13;8.32;;;11.10;98.10;;;;;;5032365;28;20423;-57
2021/11/05 09:49:34;;;;;;;10.00;8.82;;;11.20;98.20;;;;;;5034897;28;20493;-59
2021/11/05 09:52:30;;;;;;;13.02;8.93;;;11.20;98.20;;;;;;5030609;28;20025;-58
2021/11/05 09:54:59;;;;;;;12.13;8.77;;;11.20;95.50;;;;;;5032159;28;20143;-59
2021/11/05 09:57:25;;;;;;;12.18;9.75;;;11.10;97.40;;;;;;5033012;28;20479;-58
2021/11/05 09:59:56;;;;;;;11.50;8.45;;;11.20;97.90;;;;;;5034640;28;20108;-59
2021/11/05 10:02:22;;;;;;;9.88;8.70;;;11.10;97.90;;;;;;5034344;28;20029;-60
2021/11/05 10:04:48;;;;;;;13.98;8.48;;;11.20;98.30;;;;;;5034315;28;20382;-57
2021/11/05 10:07:14;;;;;;;11.45;9.20;;;11.30;98.60;;;;;;5022890;28;20022;-59
2021/11/05 10:09:42;;;;;;;10.57;9.48;;;11.30;98.60;;;;;;5025485;28;20030;-60
2021/11/05 10:12:17;;;;;;;12.48;9.70;;;11.40;98.20;;;;;;5021117;28;20029;-59
2021/11/05 10:14:53;;;;;;;12.05;9.25;;;11.30;97.60;;;;;;5028935;28;20490;-58
2021/11/05 10:17:19;;;;;;;11.55;8.48;;;11.30;95.70;;;;;;5032589;28;20360;-59
2021/11/05 10:19:58;;;;;;;11.57;9.10;;;11.40;96.90;;;;;;5025267;28;20517;-59
2021/11/05 10:22:51;;;;;;;12.15;9.07;;;11.50;94.50;;;;;;5034262;28;20507;-59
2021/11/05 10:25:25;;;;;;;14.07;9.48;;;11.50;95.10;;;;;;5048139;28;20040;-58
2021/11/05 10:28:14;;;;;;;11.52;9.80;;;11.60;95.90;;;;;;5039822;28;20225;-59
2021/11/05 10:30:50;;;;;;;13.10;9.07;;;11.60;90.00;;;;;;5033642;28;20379;-58
2021/11/05 10:33:21;;;;;;;11.90;9.82;;;11.50;91.20;;;;;;5034969;28;20113;-59
2021/11/05 10:35:51;;;;;;;14.05;9.73;;;11.60;93.40;;;;;;5033982;28;20036;-57
2021/11/05 10:38:18;;;;;;;11.73;8.52;;;11.70;93.40;;;;;;5046136;28;20379;-59
2021/11/05 10:40:45;;;;;;;11.88;10.65;;;11.70;96.70;;;;;;5050165;28;20889;-59
2021/11/05 10:43:13;;;;;;;12.77;9.85;;;11.80;95.30;;;;;;5018919;28;20515;-59
2021/11/05 10:45:42;;;;;;;11.73;9.88;;;11.80;97.50;;;;;;5014936;28;20038;-59
2021/11/05 10:48:12;;;;;;;13.82;10.10;;;11.80;97.40;;;;;;5028147;28;20029;-59
2021/11/05 10:50:53;;;;;;;10.95;9.55;;;11.90;95.40;;;;;;5033523;28;20057;-60
2021/11/05 10:53:40;;;;;;;14.38;9.93;;;12.00;97.30;;;;;;5048045;28;20032;-60
2021/11/05 10:56:13;;;;;;;12.35;10.43;;;12.00;96.10;;;;;;5054359;28;20099;-59
2021/11/05 10:59:10;;;;;;;12.10;9.90;;;12.00;97.20;;;;;;5052759;28;20105;-59
2021/11/05 11:01:41;;;;;;;12.07;10.77;;;12.20;94.50;;;;;;5045446;28;20045;-60
2021/11/05 11:04:12;;;;;;;13.40;10.57;;;12.20;96.70;;;;;;5014118;28;20037;-60
2021/11/05 11:06:45;;;;;;;11.05;9.75;;;12.10;95.80;;;;;;5026439;28;20475;-59
2021/11/05 11:09:13;;;;;;;13.95;11.13;;;12.20;97.30;;;;;;5014556;28;20041;-59
2021/11/05 11:11:43;;;;;;;16.38;10.73;;;12.20;96.70;;;;;;5014515;28;20064;-59
2021/11/05 11:14:16;;;;;;;13.23;10.60;;;12.20;94.90;;;;;;5014761;28;20478;-59
2021/11/05 11:16:49;;;;;;;15.52;10.73;;;12.20;95.80;;;;;;5012955;28;20172;-59
2021/11/05 11:19:21;;;;;;;10.25;8.90;;;12.20;96.70;;;;;;5054178;28;20083;-60
2021/11/05 11:21:46;;;;;;;12.23;10.48;;;12.30;97.40;;;;;;5050484;28;20041;-60
2021/11/05 11:24:35;;;;;;;13.00;9.68;;;12.40;97.40;;;;;;5033975;28;20036;-60
2021/11/05 11:27:02;;;;;;;12.10;10.07;;;12.40;95.40;;;;;;5046434;28;20033;-58
2021/11/05 11:29:28;;;;;;;11.65;10.02;;;12.40;96.40;;;;;;5040659;28;20025;-60
2021/11/05 11:31:56;;;;;;;17.27;10.48;;;12.50;96.60;;;;;;5040838;28;20033;-59
2021/11/05 11:34:23;;;;;;;14.15;10.93;;;12.50;97.20;;;;;;5053788;28;20029;-60
2021/11/05 11:36:55;;;;;;;10.85;9.00;;;12.60;95.60;;;;;;5050454;28;20028;-61
2021/11/05 11:39:22;;;;;;;13.68;10.15;;;12.60;93.90;;;;;;5032683;28;20052;-60
2021/11/05 11:41:51;;;;;;;12.75;10.50;;;12.70;95.60;;;;;;5032316;28;20443;-58
2021/11/05 11:44:21;;;;;;;15.40;10.00;;;12.70;97.70;;;;;;5013724;28;20022;-59
2021/11/05 11:46:56;;;;;;;14.60;10.85;;;12.60;97.50;;;;;;5013636;28;20030;-59
2021/11/05 11:49:36;;;;;;;;;;;12.70;95.80;;;;;;5014118;28;20065;-59
2021/11/05 11:52:03;;;;;;;17.95;10.55;;;12.80;94.30;;;;;;5013857;28;20012;-59
2021/11/05 11:54:35;;;;;;;12.88;11.13;;;12.80;97.00;;;;;;5032745;28;20100;-60
2021/11/05 11:57:12;;;;;;;10.50;9.07;;;12.90;97.00;;;;;;5032584;28;20398;-60
2021/11/05 11:59:39;;;;;;;12.98;9.10;;;13.00;93.50;;;;;;5013992;28;20041;-60
2021/11/05 12:02:29;;;;;;;12.35;9.02;;;12.90;96.50;;;;;;5019424;28;20463;-59
2021/11/05 12:04:55;;;;;;;10.70;9.02;;;13.00;92.60;;;;;;5030039;28;20049;-57
2021/11/05 12:07:20;;;;;;;11.23;9.15;;;13.00;96.50;;;;;;5032516;28;20857;-60
2021/11/05 12:09:46;;;;;;;11.07;9.45;;;13.00;97.10;;;;;;5033558;28;20022;-60
2021/11/05 12:12:21;;;;;;;12.50;9.45;;;13.10;95.90;;;;;;5032474;28;20026;-57
2021/11/05 12:14:58;;;;;;;12.02;9.07;;;13.20;93.90;;;;;;5053061;28;20025;-59
2021/11/05 12:17:25;;;;;;;14.55;9.50;;;13.20;92.40;;;;;;5049342;28;20557;-58
2021/11/05 12:19:51;;;;;;;12.20;8.85;;;13.20;95.90;;;;;;5031574;28;20064;-59
2021/11/05 12:22:16;;;;;;;12.02;9.05;;;13.30;94.80;;;;;;5037862;28;20067;-59
2021/11/05 12:24:48;;;;;;;11.43;8.65;;;13.30;93.70;;;;;;5032891;28;20029;-59
2021/11/05 12:27:26;;;;;;;12.02;9.48;;;13.30;92.80;;;;;;5036257;28;20033;-59
2021/11/05 12:29:55;;;;;;;17.00;11.35;;;13.40;91.40;;;;;;5011931;28;20056;-59
2021/11/05 12:32:22;;;;;;;17.35;11.52;;;13.20;93.90;;;;;;5013463;28;20026;-58
2021/11/05 12:34:53;;;;;;;26.25;18.13;;;13.20;95.40;;;;;;5052596;28;20021;-60
2021/11/05 12:37:46;;;;;;;14.35;9.95;;;13.40;95.60;;;;;;5041421;28;20108;-59
2021/11/05 12:40:37;;;;;;;12.27;9.80;;;13.30;92.80;;;;;;5032577;28;20050;-59
2021/11/05 12:43:27;;;;;;;18.05;10.70;;;13.40;93.20;;;;;;5048099;28;20057;-60
2021/11/05 12:45:59;;;;;;;18.67;12.10;;;13.60;95.70;;;;;;5031381;28;20041;-59
2021/11/05 12:48:41;;;;;;;14.23;9.60;;;13.60;96.10;;;;;;5041531;28;20033;-60
2021/11/05 12:51:09;;;;;;;11.15;8.95;;;13.60;95.10;;;;;;5022185;28;20041;-60
2021/11/05 12:53:40;;;;;;;14.30;9.57;;;13.70;95.20;;;;;;5041164;28;20037;-60